Torreon International Airport
MMTC : now visible

Airfield :











YOU CAN JOIN US ON...

 
LOGIN :

Register | Disclaimer

   EN    FR    IT 

 









Legend :    VFR   Marginal VFR   IFR   Intensive IFR   Very Intensive IFR
Visi :
Ceiling :
>= 8 km
>= 3000ft
5 to 8 km
1000 to 3000 ft
1500m to 5 km
500 to 1000 ft
800 to 1500m
200 to 500 ft
< 800m
< 200 ft
Symbols :   Thunderstorms  Fog  Heavy snow  Heavy precipitations  Wind > 20 kt







- Airport Elevation : 3688 ft
- IATA code : TRC


MMTC - Torreon International

EXPIRED METARs :
  • 210940Z 30008KT 10SM SCT100 SCT200 25/18 A3003 RMK 8/072 HZY RTS

TAF TAF MMTC
Valid from the 21 at 06:00 until the 22 at 06:00 UTC


210503Z 2106/2206 26005KT P6SM SCT100
FM211800 06010KT P6SM SCT020
FM220300 06005KT P6SM SCT020 BKN250
No reported NOTAMs for that airfield.



MET'MAP, your aeronautical weather chart ! - Copyright ORBIFLY December 2007 - Disclaimer

ORBIFLY MET'MAP TEAM :

Programming & Development : Alexandra Zaïnal
Concept & Development : Baudouin d'Aumeries
Co-Development & Prog : Marc-Olivier Méhu
Technical & hardware support : Manuel Goepfert

Contact : metmap@orbifly.com




SOURCES & CREDITS :

   NOAA       Earth
Advisory